createdAt,value
2018-12-06T00:01:18.572Z,64.77
2018-12-06T00:03:46.724Z,65.10
2018-12-06T00:06:15.044Z,65.12
2018-12-06T00:08:43.659Z,65.38
2018-12-06T00:11:12.522Z,65.88
2018-12-06T00:13:44.755Z,65.38
2018-12-06T00:16:14.517Z,65.96
2018-12-06T02:30:07.902Z,67.95
2018-12-06T02:32:37.398Z,68.14
2018-12-06T02:35:07.043Z,68.44
2018-12-06T02:37:36.333Z,68.65
2018-12-06T02:40:06.337Z,68.72
2018-12-06T02:42:39.222Z,68.43
2018-12-06T02:45:18.529Z,68.66
2018-12-06T02:47:50.196Z,69.55
2018-12-06T02:50:20.024Z,70.38
2018-12-06T02:52:48.263Z,71.30
2018-12-06T02:55:17.507Z,70.43
2018-12-06T02:57:46.121Z,70.00
2018-12-06T03:00:17.726Z,70.38
2018-12-06T03:02:47.245Z,71.14
2018-12-06T03:05:15.643Z,71.11
2018-12-06T03:07:44.187Z,71.49
2018-12-06T03:10:14.070Z,70.51
2018-12-06T03:12:44.233Z,70.81
2018-12-06T03:15:15.491Z,70.88
2018-12-06T03:17:44.859Z,71.68
2018-12-06T03:20:14.221Z,71.71
2018-12-06T03:25:46.577Z,71.98
2018-12-06T03:28:16.171Z,71.85
2018-12-06T03:30:45.437Z,71.97
2018-12-06T03:36:06.243Z,72.36
2018-12-06T03:38:36.596Z,71.59
2018-12-06T03:41:10.760Z,71.31
2018-12-06T03:43:41.136Z,71.32
2018-12-06T03:46:09.827Z,70.64
2018-12-06T03:48:39.991Z,70.33
2018-12-06T03:51:24.834Z,70.91
2018-12-06T03:53:53.117Z,70.85
2018-12-06T03:56:22.668Z,70.48
2018-12-06T03:58:52.266Z,70.13
2018-12-06T04:01:20.744Z,70.02
2018-12-06T04:03:49.084Z,70.91
2018-12-06T04:06:17.874Z,70.92
2018-12-06T04:08:46.300Z,70.75
2018-12-06T04:11:14.703Z,70.41
2018-12-06T04:13:44.579Z,69.55
2018-12-06T04:16:16.206Z,69.69
2018-12-06T04:18:45.468Z,68.93
2018-12-06T04:21:14.303Z,69.26
2018-12-06T04:23:43.036Z,69.58
2018-12-06T04:26:12.215Z,69.58
2018-12-06T04:28:43.737Z,69.43
2018-12-06T04:31:12.668Z,69.59
2018-12-06T04:33:41.521Z,69.51
2018-12-06T04:36:12.621Z,69.07
2018-12-06T04:38:41.750Z,68.87
2018-12-06T04:41:11.018Z,68.56
2018-12-06T04:43:40.794Z,69.03
2018-12-06T04:48:50.512Z,68.66
2018-12-06T04:51:20.717Z,67.63
2018-12-06T04:53:49.478Z,67.88
2018-12-06T04:56:18.046Z,68.46
2018-12-06T04:58:46.429Z,68.81
2018-12-06T05:01:18.000Z,68.67
2018-12-06T05:03:46.529Z,67.51
2018-12-06T05:06:15.242Z,67.72
2018-12-06T05:08:43.869Z,68.39
2018-12-06T05:11:12.263Z,67.86
2018-12-06T05:13:40.664Z,68.21
2018-12-06T05:16:09.741Z,68.11
2018-12-06T05:18:38.660Z,68.15
2018-12-06T05:21:06.966Z,67.61
2018-12-06T05:23:36.094Z,67.98
2018-12-06T05:28:28.723Z,67.41
2018-12-06T05:31:04.737Z,67.41
2018-12-06T05:33:33.686Z,67.63
2018-12-06T05:36:04.038Z,67.86
2018-12-06T05:38:32.811Z,67.55
2018-12-06T05:41:02.243Z,67.77
2018-12-06T05:43:30.958Z,67.83
2018-12-06T05:45:59.887Z,68.00
2018-12-06T05:48:28.204Z,68.94
2018-12-06T05:50:56.464Z,68.83
2018-12-06T05:53:26.579Z,68.14
2018-12-06T05:55:54.941Z,67.81
2018-12-06T05:58:30.799Z,68.52
2018-12-06T06:01:01.197Z,68.06
2018-12-06T06:03:31.482Z,68.60
2018-12-06T06:06:00.232Z,68.36
2018-12-06T06:08:29.273Z,69.95
2018-12-06T06:10:58.593Z,69.46
2018-12-06T06:13:29.993Z,68.53
2018-12-06T06:15:59.262Z,68.72
2018-12-06T06:18:29.164Z,69.46
2018-12-06T06:21:05.682Z,69.49
2018-12-06T06:23:34.691Z,70.37
2018-12-06T06:26:15.316Z,70.19
2018-12-06T06:29:45.155Z,69.50
2018-12-06T06:32:15.704Z,69.87
2018-12-06T06:34:47.020Z,69.53
2018-12-06T06:37:15.863Z,69.84
2018-12-06T06:39:45.660Z,70.23
2018-12-06T06:42:14.072Z,70.01
2018-12-06T06:44:46.772Z,70.15
2018-12-06T06:47:16.079Z,70.10
2018-12-06T06:49:44.402Z,70.06
2018-12-06T06:52:15.605Z,70.98
2018-12-06T06:54:47.407Z,70.30
2018-12-06T06:57:17.049Z,71.58
2018-12-06T06:59:50.194Z,73.27
2018-12-06T07:02:22.475Z,73.51
2018-12-06T07:04:52.673Z,73.04
2018-12-06T07:07:32.634Z,72.38
2018-12-06T07:10:06.900Z,72.76
2018-12-06T07:12:35.838Z,72.75
2018-12-06T07:15:07.668Z,72.89
2018-12-06T07:17:36.919Z,71.99
2018-12-06T07:20:06.633Z,72.88
2018-12-06T07:22:39.071Z,74.51
2018-12-06T07:25:08.300Z,74.07
2018-12-06T07:27:38.107Z,73.67
2018-12-06T07:30:12.244Z,72.52
2018-12-06T07:32:47.424Z,72.24
2018-12-06T07:35:19.850Z,72.82
2018-12-06T07:37:52.002Z,72.38
2018-12-06T07:40:25.942Z,72.61
2018-12-06T07:43:00.560Z,72.79
2018-12-06T07:45:30.295Z,72.75
2018-12-06T07:48:05.143Z,73.45
2018-12-06T07:50:36.328Z,72.92
2018-12-06T07:53:11.427Z,72.50
2018-12-06T07:55:46.971Z,71.60
2018-12-06T07:58:16.833Z,72.40
2018-12-06T08:00:58.805Z,72.33
2018-12-06T08:03:34.654Z,71.83
2018-12-06T08:06:14.477Z,71.10
2018-12-06T08:11:24.847Z,70.31
2018-12-06T08:13:58.572Z,70.06
2018-12-06T08:16:48.707Z,70.00
2018-12-06T08:19:20.954Z,70.03
2018-12-06T08:21:53.219Z,69.69
2018-12-06T08:24:35.805Z,70.50
2018-12-06T08:27:12.117Z,70.15
2018-12-06T08:29:42.012Z,70.91
2018-12-06T08:32:11.494Z,70.94
2018-12-06T08:34:42.995Z,70.68
2018-12-06T08:37:12.837Z,71.24
2018-12-06T08:39:43.836Z,71.12
2018-12-06T08:42:15.515Z,70.92
2018-12-06T08:44:45.088Z,71.01
2018-12-06T08:47:23.500Z,70.60
2018-12-06T08:49:54.117Z,72.41
2018-12-06T08:52:31.238Z,72.10
2018-12-06T08:55:02.253Z,71.60
2018-12-06T08:57:33.866Z,72.02
2018-12-06T09:00:09.395Z,72.22
2018-12-06T09:02:39.687Z,70.76
2018-12-06T09:05:08.797Z,70.58
2018-12-06T09:07:38.079Z,71.21
2018-12-06T09:10:08.762Z,71.02
2018-12-06T09:12:38.597Z,70.72
2018-12-06T09:15:30.162Z,70.75
2018-12-06T09:18:11.043Z,70.69
2018-12-06T09:20:57.450Z,70.37
2018-12-06T09:23:37.380Z,70.62
2018-12-06T09:26:14.675Z,70.73
2018-12-06T09:28:49.324Z,70.24
2018-12-06T09:31:19.339Z,70.77
2018-12-06T09:36:34.772Z,70.98
2018-12-06T09:39:04.714Z,72.66
2018-12-06T09:41:41.313Z,71.78
2018-12-06T09:44:14.811Z,71.26
2018-12-06T09:46:49.119Z,72.19
2018-12-06T09:49:18.248Z,72.48
2018-12-06T09:51:46.974Z,72.51
2018-12-06T09:54:18.164Z,72.87
2018-12-06T09:56:52.688Z,73.15
2018-12-06T09:59:21.877Z,72.07
2018-12-06T10:01:51.092Z,72.96
2018-12-06T10:04:22.160Z,71.90
2018-12-06T10:06:52.624Z,72.49
2018-12-06T10:09:34.676Z,71.87
2018-12-06T10:12:07.787Z,71.33
2018-12-06T10:14:41.714Z,70.96
2018-12-06T10:19:51.993Z,70.88
2018-12-06T10:22:21.663Z,70.58
2018-12-06T10:24:54.532Z,70.53
2018-12-06T10:27:24.199Z,69.76
2018-12-06T10:29:55.477Z,69.65
2018-12-06T10:32:25.275Z,68.96
2018-12-06T10:37:45.537Z,67.98
2018-12-06T10:40:17.153Z,68.78
2018-12-06T10:42:53.574Z,68.24
2018-12-06T10:45:26.603Z,67.20
2018-12-06T10:47:58.975Z,67.95
2018-12-06T10:50:30.421Z,66.95
2018-12-06T10:53:04.181Z,66.91
2018-12-06T10:55:46.658Z,67.47
2018-12-06T10:58:25.780Z,67.73
2018-12-06T11:01:02.433Z,67.50
2018-12-06T11:03:34.324Z,67.51
2018-12-06T11:06:04.047Z,67.24
2018-12-06T11:08:43.276Z,68.39
2018-12-06T11:11:15.751Z,67.80
2018-12-06T11:14:07.454Z,67.99
2018-12-06T11:16:44.900Z,67.25
2018-12-06T11:19:20.453Z,66.97
2018-12-06T11:21:51.764Z,68.11
2018-12-06T11:24:34.829Z,67.98
2018-12-06T11:27:15.315Z,67.98
2018-12-06T11:29:45.450Z,68.09
2018-12-06T11:32:15.979Z,67.73
2018-12-06T11:34:48.896Z,67.61
2018-12-06T11:37:19.082Z,67.36
2018-12-06T11:39:50.755Z,68.10
2018-12-06T11:42:19.776Z,68.12
2018-12-06T11:44:48.536Z,67.38
2018-12-06T11:47:21.399Z,67.21
2018-12-06T11:49:52.831Z,67.73
2018-12-06T11:52:23.810Z,67.65
2018-12-06T11:54:55.769Z,67.79
2018-12-06T11:57:25.099Z,67.42
2018-12-06T11:59:55.777Z,67.79
2018-12-06T12:02:25.218Z,67.75
2018-12-06T12:04:56.226Z,67.81
2018-12-06T12:07:38.368Z,68.38
2018-12-06T12:10:11.699Z,68.87
2018-12-06T12:12:44.817Z,68.57
2018-12-06T12:15:16.236Z,69.29
2018-12-06T12:17:47.097Z,69.45
2018-12-06T12:20:17.273Z,69.04
2018-12-06T12:22:55.423Z,68.95
2018-12-06T12:25:26.374Z,68.36
2018-12-06T12:28:01.792Z,68.70
2018-12-06T12:30:38.347Z,68.42
2018-12-06T12:33:11.387Z,67.95
2018-12-06T12:35:52.566Z,67.19
2018-12-06T12:38:42.455Z,67.05
2018-12-06T12:41:16.843Z,67.42
2018-12-06T12:43:47.378Z,66.38
2018-12-06T12:46:43.188Z,66.28
2018-12-06T12:49:35.512Z,66.66
2018-12-06T12:52:13.251Z,66.37
2018-12-06T12:54:49.579Z,65.52
2018-12-06T12:57:35.246Z,65.69
2018-12-06T13:00:09.684Z,65.39
2018-12-06T13:02:39.544Z,65.50
2018-12-06T13:05:13.703Z,65.59
2018-12-06T13:07:51.586Z,65.17
2018-12-06T13:10:22.563Z,64.78
2018-12-06T13:12:54.603Z,64.93
2018-12-06T13:15:23.110Z,64.61
2018-12-06T13:17:55.447Z,64.25
2018-12-06T13:20:28.086Z,64.60
2018-12-06T13:23:03.350Z,64.47
2018-12-06T13:25:34.580Z,64.47
2018-12-06T13:28:04.419Z,65.08
2018-12-06T13:30:35.312Z,64.61
2018-12-06T13:33:16.734Z,65.12
2018-12-06T13:35:49.183Z,64.01
2018-12-06T13:38:38.169Z,64.77
2018-12-06T13:41:08.477Z,65.23
2018-12-06T13:43:47.375Z,64.88
2018-12-06T13:46:20.992Z,65.12
2018-12-06T13:51:35.442Z,65.21
2018-12-06T13:54:06.555Z,65.16
2018-12-06T13:56:41.544Z,64.00
2018-12-06T13:59:12.503Z,64.06
2018-12-06T14:11:19.881Z,64.84
2018-12-06T14:16:19.905Z,64.86
2018-12-06T14:18:54.734Z,64.42
2018-12-06T14:21:32.048Z,64.80
2018-12-06T14:24:05.139Z,65.00
2018-12-06T14:26:37.641Z,64.59
2018-12-06T14:29:17.168Z,65.25
2018-12-06T14:31:59.030Z,64.99
2018-12-06T14:34:29.959Z,64.81
2018-12-06T14:37:09.363Z,64.13
2018-12-06T14:39:43.696Z,64.77
2018-12-06T14:42:15.614Z,64.45
2018-12-06T14:44:50.381Z,64.38
2018-12-06T14:47:23.317Z,64.43
2018-12-06T14:52:50.104Z,63.83
2018-12-06T14:55:20.231Z,64.51
2018-12-06T14:58:06.662Z,63.98
2018-12-06T15:00:38.323Z,64.06
2018-12-06T15:03:07.419Z,63.79
2018-12-06T15:05:46.609Z,64.17
2018-12-06T15:08:21.379Z,63.46
2018-12-06T15:10:56.625Z,63.74
2018-12-06T15:13:35.933Z,63.64
2018-12-06T15:18:56.816Z,62.55
2018-12-06T15:21:26.372Z,62.92
2018-12-06T15:23:56.820Z,62.32
2018-12-06T15:26:26.230Z,62.71
2018-12-06T15:28:57.291Z,62.69
2018-12-06T15:31:39.634Z,62.53
2018-12-06T15:34:12.241Z,62.04
2018-12-06T15:36:44.387Z,61.93
2018-12-06T15:39:18.263Z,62.02
2018-12-06T15:41:54.427Z,62.68
2018-12-06T15:44:24.757Z,62.64
2018-12-06T15:46:54.634Z,62.95
2018-12-06T15:49:22.985Z,62.32
2018-12-06T15:51:58.685Z,62.89
2018-12-06T15:54:29.782Z,61.92
2018-12-06T15:57:03.157Z,62.36
2018-12-06T15:59:32.566Z,61.80
2018-12-06T16:02:03.695Z,62.42
2018-12-06T16:04:35.466Z,62.62
2018-12-06T16:07:20.802Z,62.28
2018-12-06T16:09:50.169Z,61.77
2018-12-06T16:12:19.509Z,61.94
2018-12-06T16:14:47.981Z,61.24
2018-12-06T16:17:17.154Z,61.76
2018-12-06T16:19:46.525Z,61.84
2018-12-06T16:22:16.516Z,62.52
2018-12-06T16:24:46.765Z,61.72
2018-12-06T16:27:16.343Z,61.76
2018-12-06T16:29:51.351Z,61.88
2018-12-06T16:32:21.136Z,62.30
2018-12-06T16:34:50.949Z,62.30
2018-12-06T16:37:22.212Z,62.57
2018-12-06T16:42:46.747Z,63.31
2018-12-06T16:45:31.757Z,63.24
2018-12-06T16:50:35.391Z,61.92
2018-12-06T16:53:08.626Z,61.82
2018-12-06T16:55:47.227Z,62.14
2018-12-06T16:58:18.054Z,62.94
2018-12-06T17:00:49.739Z,62.92
2018-12-06T17:03:23.920Z,62.54
2018-12-06T17:06:04.129Z,63.01
2018-12-06T17:08:36.672Z,62.76
2018-12-06T17:11:07.283Z,63.47
2018-12-06T17:13:38.610Z,62.67
2018-12-06T17:16:10.283Z,62.19
2018-12-06T17:21:22.789Z,62.41
2018-12-06T17:24:19.707Z,62.42
2018-12-06T17:27:07.306Z,62.89
2018-12-06T17:29:43.536Z,63.46
2018-12-06T17:32:16.454Z,63.44
2018-12-06T17:34:58.375Z,62.52
2018-12-06T17:40:30.331Z,62.39
2018-12-06T17:43:02.427Z,63.29
2018-12-06T17:45:32.673Z,62.79
2018-12-06T17:48:03.656Z,63.50
2018-12-06T17:50:33.438Z,63.05
2018-12-06T17:53:02.571Z,63.50
2018-12-06T17:56:45.392Z,63.35
2018-12-06T17:59:15.900Z,63.22
2018-12-06T18:01:46.157Z,63.85
2018-12-06T18:04:19.340Z,63.62
2018-12-06T18:06:51.566Z,64.19
2018-12-06T18:09:21.064Z,64.45
2018-12-06T18:11:59.480Z,64.74
2018-12-06T18:14:32.007Z,63.96
2018-12-06T18:17:21.204Z,64.37
2018-12-06T18:19:58.778Z,63.71
2018-12-06T18:22:46.845Z,63.66
2018-12-06T18:26:33.899Z,64.16
2018-12-06T18:29:03.839Z,64.41
2018-12-06T18:31:39.201Z,64.20
2018-12-06T18:34:19.198Z,63.90
2018-12-06T18:36:49.081Z,64.31
2018-12-06T18:39:35.067Z,64.17
2018-12-06T18:42:12.551Z,64.01
2018-12-06T18:44:51.295Z,65.05
2018-12-06T18:48:07.195Z,63.74
2018-12-06T18:50:35.674Z,64.74
2018-12-06T18:53:04.393Z,63.80
2018-12-06T18:55:35.105Z,65.01
2018-12-06T18:58:16.909Z,64.33
2018-12-06T19:00:48.162Z,65.12
2018-12-06T19:03:20.692Z,64.97
2018-12-06T19:05:51.330Z,65.63
2018-12-06T19:08:20.318Z,65.10
2018-12-06T19:11:42.129Z,65.85
2018-12-06T19:14:31.601Z,66.51
2018-12-06T19:17:01.685Z,66.94
2018-12-06T19:19:35.346Z,66.70
2018-12-06T19:22:07.492Z,66.18
2018-12-06T19:24:36.297Z,66.39
2018-12-06T19:27:06.911Z,66.78
2018-12-06T19:29:38.731Z,67.02
2018-12-06T19:37:45.849Z,66.38
2018-12-06T19:40:17.244Z,66.19
2018-12-06T19:45:30.264Z,65.51
2018-12-06T19:51:30.442Z,66.08
2018-12-06T19:54:05.286Z,65.46
2018-12-06T19:56:44.176Z,65.81
2018-12-06T19:59:15.205Z,65.49
2018-12-06T20:01:47.976Z,65.17
2018-12-06T20:10:11.866Z,65.88
2018-12-06T20:12:58.602Z,65.64
2018-12-06T20:15:31.244Z,65.37
2018-12-06T20:18:03.096Z,66.24
2018-12-06T20:20:37.426Z,66.21
2018-12-06T20:23:10.346Z,65.77
2018-12-06T20:25:51.595Z,66.34
2018-12-06T20:34:10.014Z,65.71
2018-12-06T20:36:57.233Z,66.32
2018-12-06T20:39:33.856Z,65.96
2018-12-06T20:42:13.633Z,66.06
2018-12-06T20:50:38.981Z,67.02
2018-12-06T20:53:12.757Z,66.32
2018-12-06T20:55:42.269Z,66.80
2018-12-06T20:58:30.674Z,66.52
2018-12-06T21:01:03.571Z,67.10
2018-12-06T21:03:33.519Z,67.10
2018-12-06T21:06:02.027Z,67.39
2018-12-06T21:08:34.367Z,66.83
2018-12-06T21:11:06.140Z,67.33
2018-12-06T21:13:37.279Z,67.32
2018-12-06T21:16:34.554Z,67.70
2018-12-06T21:19:09.402Z,67.02
2018-12-06T21:21:39.917Z,66.62
2018-12-06T21:24:10.817Z,67.20
2018-12-06T21:26:39.952Z,66.88
2018-12-06T21:29:11.687Z,67.00
2018-12-06T21:36:57.189Z,67.35
2018-12-06T21:39:30.714Z,66.50
2018-12-06T21:42:00.694Z,67.62
2018-12-06T21:44:31.703Z,67.29
2018-12-06T21:47:04.772Z,67.09
2018-12-06T21:49:43.837Z,66.60
2018-12-06T21:52:18.429Z,66.69
2018-12-06T21:54:51.572Z,66.52
2018-12-06T21:57:30.295Z,66.27
2018-12-06T22:00:15.415Z,66.45
2018-12-06T22:02:52.580Z,66.21
2018-12-06T22:05:37.177Z,66.29
2018-12-06T22:08:14.395Z,66.06
2018-12-06T22:10:52.007Z,66.65
2018-12-06T22:13:22.419Z,66.30
2018-12-06T22:15:54.612Z,66.53
2018-12-06T22:18:30.688Z,66.02
2018-12-06T22:21:01.283Z,65.97
2018-12-06T22:23:30.045Z,66.17
2018-12-06T22:25:59.565Z,65.54
2018-12-06T22:28:33.995Z,66.00
2018-12-06T22:31:01.502Z,66.70
2018-12-06T22:33:33.279Z,67.13
2018-12-06T22:36:06.422Z,66.83
2018-12-06T22:38:46.753Z,66.77
2018-12-06T22:41:16.593Z,67.25
2018-12-06T22:43:53.066Z,67.56
2018-12-06T22:46:25.014Z,67.68
2018-12-06T22:51:41.529Z,68.23
2018-12-06T22:54:15.123Z,67.68
2018-12-06T22:56:49.543Z,67.56
2018-12-06T22:59:21.866Z,67.13
2018-12-06T23:01:51.369Z,67.41
2018-12-06T23:04:20.508Z,67.81
2018-12-06T23:06:50.504Z,67.22
2018-12-06T23:09:28.125Z,67.10
2018-12-06T23:11:57.519Z,67.29
2018-12-06T23:14:26.706Z,67.20
2018-12-06T23:16:57.045Z,66.88
2018-12-06T23:19:28.409Z,66.94
2018-12-06T23:22:01.576Z,66.75
2018-12-06T23:24:30.882Z,66.52
2018-12-06T23:26:59.347Z,66.75
2018-12-06T23:29:29.120Z,66.76
2018-12-06T23:31:58.995Z,66.73
2018-12-06T23:34:28.014Z,66.53
2018-12-06T23:36:56.542Z,66.40
2018-12-06T23:39:26.472Z,66.92
2018-12-06T23:41:57.677Z,66.57
2018-12-06T23:44:29.640Z,67.10
2018-12-06T23:46:59.342Z,65.98
2018-12-06T23:49:29.458Z,66.59
2018-12-06T23:51:58.716Z,66.06
2018-12-06T23:54:27.324Z,66.07
2018-12-06T23:56:56.010Z,66.64
2018-12-06T23:59:28.230Z,65.67
